createdAt,value
2022-08-22T00:02:40.441Z,3.60
2022-08-22T00:02:48.774Z,2.95
2022-08-22T00:05:29.995Z,3.25
2022-08-22T00:08:18.685Z,3.72
2022-08-22T00:11:02.704Z,3.63
2022-08-22T00:13:45.535Z,4.20
2022-08-22T00:16:48.437Z,4.13
2022-08-22T00:19:47.504Z,4.68
2022-08-22T00:22:17.155Z,3.22
2022-08-22T00:25:25.922Z,4.53
2022-08-22T00:28:10.423Z,3.65
2022-08-22T00:30:51.027Z,4.20
2022-08-22T00:33:25.710Z,4.25
2022-08-22T00:36:09.623Z,3.45
2022-08-22T00:38:42.492Z,4.00
2022-08-22T00:41:31.367Z,3.85
2022-08-22T00:44:27.188Z,4.30
2022-08-22T00:47:10.348Z,3.70
2022-08-22T00:50:03.073Z,4.13
2022-08-22T00:52:41.694Z,3.72
2022-08-22T00:55:15.206Z,3.47
2022-08-22T00:58:03.123Z,3.85
2022-08-22T01:00:36.442Z,3.75
2022-08-22T01:03:12.290Z,3.90
2022-08-22T01:05:58.344Z,3.15
2022-08-22T01:08:53.967Z,3.60
2022-08-22T01:11:23.559Z,3.63
2022-08-22T01:14:08.252Z,4.35
2022-08-22T01:16:34.870Z,3.78
2022-08-22T01:19:39.745Z,3.15
2022-08-22T01:22:21.448Z,3.42
2022-08-22T01:25:15.731Z,3.85
2022-08-22T01:28:01.603Z,3.95
2022-08-22T01:30:53.400Z,4.25
2022-08-22T01:33:44.767Z,3.97
2022-08-22T01:36:38.684Z,3.72
2022-08-22T01:42:09.836Z,3.80
2022-08-22T01:45:04.478Z,4.30
2022-08-22T01:47:50.173Z,4.00
2022-08-22T01:50:36.817Z,3.97
2022-08-22T01:53:22.980Z,4.13
2022-08-22T01:56:12.272Z,3.75
2022-08-22T01:58:55.432Z,4.03
2022-08-22T02:01:55.317Z,4.07
2022-08-22T02:04:58.622Z,3.60
2022-08-22T02:07:33.530Z,4.00
2022-08-22T02:10:48.302Z,4.28
2022-08-22T02:13:14.777Z,3.65
2022-08-22T02:15:41.319Z,3.97
2022-08-22T02:18:23.173Z,3.63
2022-08-22T02:21:05.132Z,4.05
2022-08-22T02:23:50.579Z,4.53
2022-08-22T02:26:23.617Z,4.28
2022-08-22T02:29:14.307Z,3.90
2022-08-22T02:32:07.121Z,4.15
2022-08-22T02:34:42.510Z,4.43
2022-08-22T02:37:39.551Z,4.32
2022-08-22T02:40:11.804Z,4.28
2022-08-22T02:42:59.608Z,4.10
2022-08-22T02:45:41.714Z,4.43
2022-08-22T02:48:22.660Z,3.80
2022-08-22T02:51:05.983Z,3.75
2022-08-22T02:54:03.223Z,4.38
2022-08-22T02:56:31.697Z,4.25
2022-08-22T02:59:23.270Z,4.35
2022-08-22T03:01:51.291Z,4.03
2022-08-22T03:04:45.604Z,4.43
2022-08-22T03:07:21.356Z,4.53
2022-08-22T03:09:57.920Z,4.68
2022-08-22T03:12:40.034Z,4.07
2022-08-22T03:15:20.985Z,4.53
2022-08-22T03:17:47.508Z,4.55
2022-08-22T03:20:21.533Z,5.22
2022-08-22T03:23:00.654Z,5.97
2022-08-22T03:25:38.323Z,4.78
2022-08-22T03:28:18.703Z,4.75
2022-08-22T03:30:56.101Z,5.07
2022-08-22T03:33:26.103Z,5.00
2022-08-22T03:36:13.804Z,5.43
2022-08-22T03:38:52.141Z,4.90
2022-08-22T03:41:27.704Z,5.45
2022-08-22T03:44:34.531Z,5.32
2022-08-22T03:47:25.953Z,5.75
2022-08-22T03:50:13.775Z,5.03
2022-08-22T03:53:22.105Z,5.57
2022-08-22T03:56:16.298Z,5.43
2022-08-22T03:59:27.883Z,5.78
2022-08-22T04:02:41.867Z,6.05
2022-08-22T04:05:20.975Z,6.03
2022-08-22T04:08:26.424Z,5.45
2022-08-22T04:11:05.843Z,5.05
2022-08-22T04:13:38.377Z,5.60
2022-08-22T04:16:10.897Z,6.07
2022-08-22T04:19:03.733Z,6.00
2022-08-22T04:21:59.860Z,5.70
2022-08-22T04:24:54.360Z,6.18
2022-08-22T04:27:34.226Z,6.60
2022-08-22T04:30:11.665Z,7.32
2022-08-22T04:32:51.160Z,6.43
2022-08-22T04:35:46.248Z,5.93
2022-08-22T04:38:19.679Z,6.05
2022-08-22T04:43:34.366Z,6.57
2022-08-22T04:46:32.119Z,6.78
2022-08-22T04:49:16.790Z,6.32
2022-08-22T04:52:04.586Z,7.43
2022-08-22T04:54:42.946Z,6.53
2022-08-22T04:57:19.554Z,7.03
2022-08-22T04:59:46.491Z,6.57
2022-08-22T05:02:22.403Z,6.80
2022-08-22T05:04:56.898Z,6.47
2022-08-22T05:07:36.027Z,7.43
2022-08-22T05:10:12.034Z,6.97
2022-08-22T05:12:43.489Z,7.03
2022-08-22T05:15:23.489Z,7.47
2022-08-22T05:17:52.820Z,7.22
2022-08-22T05:20:23.345Z,6.97
2022-08-22T05:22:55.135Z,6.90
2022-08-22T05:25:26.759Z,7.50
2022-08-22T05:28:31.333Z,7.03
2022-08-22T05:30:58.967Z,8.32
2022-08-22T05:33:33.696Z,8.40
2022-08-22T05:36:06.851Z,7.25
2022-08-22T05:38:39.275Z,8.02
2022-08-22T05:41:16.863Z,7.63
2022-08-22T05:43:44.482Z,7.13
2022-08-22T05:46:24.610Z,7.43
2022-08-22T05:49:00.407Z,7.75
2022-08-22T05:51:37.001Z,7.82
2022-08-22T05:54:22.603Z,7.70
2022-08-22T05:57:41.601Z,7.85
2022-08-22T06:00:38.578Z,8.07
2022-08-22T06:03:29.968Z,8.25
2022-08-22T06:05:59.876Z,8.63
2022-08-22T06:08:37.628Z,8.75
2022-08-22T06:11:21.012Z,8.45
2022-08-22T06:14:02.099Z,8.55
2022-08-22T06:16:47.316Z,8.63
2022-08-22T06:19:20.283Z,8.68
2022-08-22T06:21:50.634Z,9.52
2022-08-22T06:24:26.218Z,8.07
2022-08-22T06:26:56.529Z,8.90
2022-08-22T06:29:37.737Z,8.30
2022-08-22T06:32:16.307Z,9.10
2022-08-22T06:34:46.114Z,9.20
2022-08-22T06:37:25.201Z,9.00
2022-08-22T06:39:54.162Z,9.02
2022-08-22T06:42:31.159Z,9.57
2022-08-22T06:45:26.502Z,8.57
2022-08-22T06:48:00.605Z,8.63
2022-08-22T06:50:32.771Z,8.77
2022-08-22T06:53:16.343Z,9.02
2022-08-22T06:55:48.026Z,8.93
2022-08-22T06:58:21.923Z,8.70
2022-08-22T07:01:11.334Z,9.65
2022-08-22T07:03:44.933Z,11.65
2022-08-22T07:06:17.336Z,11.57
2022-08-22T07:08:45.131Z,10.55
2022-08-22T07:11:24.660Z,9.23
2022-08-22T07:14:02.383Z,9.32
2022-08-22T07:16:31.092Z,10.38
2022-08-22T07:18:58.365Z,9.65
2022-08-22T07:21:29.379Z,9.32
2022-08-22T07:23:58.719Z,9.43
2022-08-22T07:27:02.611Z,9.70
2022-08-22T07:29:50.348Z,10.27
2022-08-22T07:32:28.962Z,9.82
2022-08-22T07:35:16.277Z,9.23
2022-08-22T07:38:09.839Z,9.88
2022-08-22T07:40:48.570Z,10.15
2022-08-22T07:43:46.316Z,10.25
2022-08-22T07:46:41.748Z,9.90
2022-08-22T07:49:22.091Z,10.02
2022-08-22T07:51:54.128Z,9.90
2022-08-22T07:54:29.412Z,9.98
2022-08-22T07:56:59.243Z,10.13
2022-08-22T07:59:31.509Z,10.13
2022-08-22T08:02:01.846Z,10.15
2022-08-22T08:04:40.066Z,10.48
2022-08-22T08:07:09.806Z,10.65
2022-08-22T08:09:44.532Z,9.80
2022-08-22T08:12:13.590Z,9.32
2022-08-22T08:14:44.146Z,10.35
2022-08-22T08:17:21.930Z,9.85
2022-08-22T08:19:50.802Z,10.57
2022-08-22T08:22:24.343Z,11.18
2022-08-22T08:24:53.277Z,10.20
2022-08-22T08:27:50.306Z,10.43
2022-08-22T08:30:37.834Z,10.27
2022-08-22T08:33:24.258Z,9.57
2022-08-22T08:36:03.351Z,9.57
2022-08-22T08:38:37.846Z,11.05
2022-08-22T08:41:38.794Z,10.15
2022-08-22T08:44:31.635Z,10.20
2022-08-22T08:47:20.700Z,9.27
2022-08-22T08:49:58.938Z,10.63
2022-08-22T08:52:40.480Z,11.00
2022-08-22T08:55:15.943Z,11.02
2022-08-22T08:57:59.465Z,10.93
2022-08-22T09:00:43.033Z,11.05
2022-08-22T09:03:47.794Z,10.38
2022-08-22T09:06:31.478Z,9.15
2022-08-22T09:09:09.719Z,9.15
2022-08-22T09:11:59.358Z,9.68
2022-08-22T09:14:38.541Z,8.40
2022-08-22T09:17:43.569Z,8.98
2022-08-22T09:20:32.764Z,8.52
2022-08-22T09:23:37.278Z,8.35
2022-08-22T09:26:25.757Z,8.20
2022-08-22T09:28:59.648Z,7.45
2022-08-22T09:31:32.863Z,6.78
2022-08-22T09:34:35.451Z,7.35
2022-08-22T09:37:24.428Z,6.57
2022-08-22T09:40:06.490Z,7.22
2022-08-22T09:42:44.960Z,6.63
2022-08-22T09:45:18.797Z,5.40
2022-08-22T09:48:00.111Z,5.83
2022-08-22T09:51:28.599Z,5.30
2022-08-22T09:54:11.720Z,4.30
2022-08-22T09:56:56.512Z,4.57
2022-08-22T09:59:35.858Z,4.57
2022-08-22T10:02:26.733Z,4.53
2022-08-22T10:05:40.893Z,3.70
2022-08-22T10:08:14.015Z,3.92
2022-08-22T10:11:06.607Z,4.10
2022-08-22T10:13:42.295Z,3.97
2022-08-22T10:16:21.473Z,4.45
2022-08-22T10:19:28.691Z,4.15
2022-08-22T10:22:33.690Z,3.10
2022-08-22T10:25:07.551Z,3.50
2022-08-22T10:28:06.263Z,3.85
2022-08-22T10:30:47.816Z,4.05
2022-08-22T10:33:26.363Z,3.10
2022-08-22T10:36:12.054Z,3.83
2022-08-22T10:38:50.306Z,3.75
2022-08-22T10:41:31.944Z,3.80
2022-08-22T10:44:10.955Z,2.50
2022-08-22T10:47:02.581Z,2.75
2022-08-22T10:49:44.685Z,2.83
2022-08-22T10:52:38.882Z,2.58
2022-08-22T10:55:25.494Z,2.28
2022-08-22T10:58:11.140Z,2.72
2022-08-22T11:01:38.252Z,2.90
2022-08-22T11:04:12.284Z,3.53
2022-08-22T11:06:46.526Z,2.17
2022-08-22T11:09:36.318Z,2.85
2022-08-22T11:12:20.866Z,2.45
2022-08-22T11:14:53.728Z,3.40
2022-08-22T11:17:58.174Z,2.58
2022-08-22T11:20:50.514Z,2.63
2022-08-22T11:23:33.367Z,2.30
2022-08-22T11:26:08.447Z,2.13
2022-08-22T11:29:13.286Z,2.42
2022-08-22T11:31:47.330Z,2.47
2022-08-22T11:34:49.323Z,2.38
2022-08-22T11:37:42.981Z,1.83
2022-08-22T11:40:13.395Z,2.25
2022-08-22T11:43:16.419Z,2.03
2022-08-22T11:45:51.537Z,2.10
2022-08-22T11:51:34.328Z,2.28
2022-08-22T11:54:38.889Z,2.22
2022-08-22T11:57:13.656Z,2.20
2022-08-22T11:59:43.355Z,1.92
2022-08-22T12:02:49.182Z,2.28
2022-08-22T12:05:26.426Z,2.67
2022-08-22T12:08:03.924Z,2.42
2022-08-22T12:10:36.056Z,2.47
2022-08-22T12:13:39.995Z,2.70
2022-08-22T12:16:27.575Z,2.63
2022-08-22T12:19:01.633Z,2.30
2022-08-22T12:21:58.805Z,2.22
2022-08-22T12:24:43.495Z,2.50
2022-08-22T12:27:18.506Z,2.70
2022-08-22T12:30:14.204Z,2.25
2022-08-22T12:33:05.863Z,2.45
2022-08-22T12:35:45.703Z,1.98
2022-08-22T12:38:39.345Z,2.42
2022-08-22T12:42:05.823Z,2.20
2022-08-22T12:44:41.762Z,2.20
2022-08-22T12:47:14.154Z,2.35
2022-08-22T12:50:13.548Z,2.80
2022-08-22T12:53:07.640Z,2.05
2022-08-22T12:55:37.349Z,2.30
2022-08-22T12:58:56.784Z,2.30
2022-08-22T13:01:34.634Z,2.03
2022-08-22T13:04:05.338Z,2.33
2022-08-22T13:06:48.862Z,2.47
2022-08-22T13:09:28.798Z,1.90
2022-08-22T13:12:03.268Z,2.22
2022-08-22T13:14:34.123Z,2.47
2022-08-22T13:17:10.164Z,2.05
2022-08-22T13:20:00.637Z,2.20
2022-08-22T13:22:31.341Z,1.70
2022-08-22T13:25:08.658Z,2.00
2022-08-22T13:27:51.343Z,2.13
2022-08-22T13:30:27.669Z,2.13
2022-08-22T13:33:02.802Z,2.00
2022-08-22T13:35:39.870Z,2.05
2022-08-22T13:38:25.495Z,1.95
2022-08-22T13:40:55.656Z,1.98
2022-08-22T13:43:49.689Z,1.95
2022-08-22T13:46:23.494Z,1.85
2022-08-22T13:48:56.694Z,2.20
2022-08-22T13:51:49.871Z,1.63
2022-08-22T13:54:16.377Z,2.10
2022-08-22T13:57:25.835Z,1.95
2022-08-22T14:00:25.418Z,1.98
2022-08-22T14:03:18.910Z,2.00
2022-08-22T14:05:51.273Z,2.05
2022-08-22T14:08:23.363Z,2.25
2022-08-22T14:11:09.837Z,2.03
2022-08-22T14:13:57.766Z,2.20
2022-08-22T14:16:33.450Z,2.03
2022-08-22T14:19:08.147Z,2.00
2022-08-22T14:21:45.193Z,2.15
2022-08-22T14:24:25.678Z,2.00
2022-08-22T14:27:16.805Z,1.95
2022-08-22T14:29:56.341Z,2.22
2022-08-22T14:32:46.935Z,2.22
2022-08-22T14:35:23.591Z,1.92
2022-08-22T14:38:17.193Z,1.73
2022-08-22T14:40:46.009Z,2.25
2022-08-22T14:43:40.567Z,2.10
2022-08-22T14:46:14.511Z,1.83
2022-08-22T14:48:51.554Z,1.95
2022-08-22T14:51:26.060Z,1.98
2022-08-22T14:53:53.005Z,2.22
2022-08-22T14:56:22.466Z,2.33
2022-08-22T14:59:05.546Z,2.05
2022-08-22T15:01:53.134Z,2.67
2022-08-22T15:04:25.481Z,2.47
2022-08-22T15:06:58.662Z,2.33
2022-08-22T15:09:31.331Z,2.38
2022-08-22T15:11:58.409Z,2.50
2022-08-22T15:14:37.552Z,2.50
2022-08-22T15:17:08.706Z,2.33
2022-08-22T15:19:41.076Z,2.20
2022-08-22T15:22:38.922Z,2.63
2022-08-22T15:25:22.323Z,2.45
2022-08-22T15:27:57.205Z,2.53
2022-08-22T15:30:36.288Z,2.47
2022-08-22T15:33:21.537Z,2.28
2022-08-22T15:35:49.895Z,2.35
2022-08-22T15:38:32.665Z,2.83
2022-08-22T15:41:22.088Z,2.10
2022-08-22T15:43:52.870Z,2.38
2022-08-22T15:46:25.450Z,2.10
2022-08-22T15:49:01.421Z,2.05
2022-08-22T15:51:39.240Z,2.70
2022-08-22T15:54:35.153Z,2.05
2022-08-22T15:57:12.604Z,2.10
2022-08-22T15:59:53.982Z,2.20
2022-08-22T16:02:35.313Z,2.25
2022-08-22T16:05:07.981Z,2.80
2022-08-22T16:07:43.882Z,2.40
2022-08-22T16:10:28.307Z,2.60
2022-08-22T16:13:32.116Z,2.65
2022-08-22T16:18:34.386Z,2.58
2022-08-22T16:21:12.078Z,2.42
2022-08-22T16:23:54.281Z,2.20
2022-08-22T16:26:30.098Z,2.10
2022-08-22T16:28:59.471Z,2.42
2022-08-22T16:31:35.529Z,2.33
2022-08-22T16:34:17.915Z,2.80
2022-08-22T16:37:05.268Z,2.60
2022-08-22T16:39:39.793Z,2.50
2022-08-22T16:42:19.560Z,2.85
2022-08-22T16:45:05.212Z,2.20
2022-08-22T16:47:54.530Z,2.70
2022-08-22T16:50:28.343Z,2.55
2022-08-22T16:53:03.590Z,2.00
2022-08-22T16:55:30.124Z,2.38
2022-08-22T16:58:49.921Z,2.22
2022-08-22T17:01:43.514Z,2.28
2022-08-22T17:04:30.303Z,1.83
2022-08-22T17:07:06.226Z,2.05
2022-08-22T17:09:56.105Z,2.20
2022-08-22T17:12:30.558Z,2.00
2022-08-22T17:15:20.534Z,2.20
2022-08-22T17:18:27.138Z,2.80
2022-08-22T17:21:17.904Z,2.95
2022-08-22T17:24:31.626Z,2.75
2022-08-22T17:27:19.283Z,2.10
2022-08-22T17:30:09.964Z,2.45
2022-08-22T17:32:58.964Z,2.45
2022-08-22T17:35:51.484Z,2.20
2022-08-22T17:38:42.903Z,2.20
2022-08-22T17:41:26.451Z,2.33
2022-08-22T17:44:02.044Z,2.40
2022-08-22T17:46:41.071Z,3.22
2022-08-22T17:49:22.436Z,2.00
2022-08-22T17:52:06.389Z,2.00
2022-08-22T17:54:48.740Z,2.40
2022-08-22T17:57:27.549Z,2.08
2022-08-22T18:00:17.579Z,2.00
2022-08-22T18:02:52.668Z,2.80
2022-08-22T18:05:27.705Z,2.25
2022-08-22T18:08:06.776Z,2.53
2022-08-22T18:10:46.578Z,2.42
2022-08-22T18:13:31.054Z,2.50
2022-08-22T18:16:04.185Z,2.83
2022-08-22T18:21:26.757Z,2.67
2022-08-22T18:24:01.271Z,2.33
2022-08-22T18:26:51.210Z,2.80
2022-08-22T18:29:22.992Z,3.03
2022-08-22T18:32:00.462Z,2.85
2022-08-22T18:34:40.795Z,2.22
2022-08-22T18:37:37.174Z,2.30
2022-08-22T18:40:10.559Z,2.92
2022-08-22T18:42:43.785Z,2.47
2022-08-22T18:48:31.256Z,2.22
2022-08-22T18:51:25.089Z,2.30
2022-08-22T18:53:57.002Z,2.10
2022-08-22T18:56:51.104Z,2.97
2022-08-22T18:59:26.551Z,3.38
2022-08-22T19:02:09.823Z,2.72
2022-08-22T19:05:24.379Z,2.65
2022-08-22T19:08:00.291Z,2.10
2022-08-22T19:10:49.144Z,2.67
2022-08-22T19:13:34.628Z,2.47
2022-08-22T19:16:36.394Z,2.53
2022-08-22T19:19:50.916Z,3.03
2022-08-22T19:22:30.315Z,3.30
2022-08-22T19:25:15.325Z,3.00
2022-08-22T19:27:56.868Z,3.28
2022-08-22T19:30:51.018Z,3.45
2022-08-22T19:33:48.401Z,3.03
2022-08-22T19:36:33.001Z,2.78
2022-08-22T19:39:01.443Z,3.00
2022-08-22T19:41:42.810Z,2.67
2022-08-22T19:44:21.390Z,2.58
2022-08-22T19:47:29.537Z,3.15
2022-08-22T19:50:23.795Z,2.88
2022-08-22T19:52:56.532Z,3.20
2022-08-22T19:55:38.511Z,2.85
2022-08-22T19:58:35.470Z,2.92
2022-08-22T20:01:36.529Z,2.88
2022-08-22T20:04:21.426Z,2.92
2022-08-22T20:07:14.826Z,2.67
2022-08-22T20:09:47.917Z,3.80
2022-08-22T20:12:34.585Z,2.95
2022-08-22T20:15:16.585Z,3.78
2022-08-22T20:17:43.857Z,3.13
2022-08-22T20:20:19.720Z,2.88
2022-08-22T20:23:03.457Z,2.88
2022-08-22T20:25:44.230Z,2.65
2022-08-22T20:28:39.170Z,3.17
2022-08-22T20:31:11.034Z,2.97
2022-08-22T20:33:42.430Z,2.70
2022-08-22T20:36:16.688Z,2.78
2022-08-22T20:39:03.073Z,3.33
2022-08-22T20:41:29.919Z,3.72
2022-08-22T20:44:21.820Z,3.05
2022-08-22T20:46:53.147Z,3.20
2022-08-22T20:49:31.565Z,2.92
2022-08-22T20:52:01.112Z,2.90
2022-08-22T20:54:31.836Z,2.78
2022-08-22T20:57:00.816Z,3.20
2022-08-22T20:59:38.573Z,2.95
2022-08-22T21:02:28.709Z,3.30
2022-08-22T21:05:03.245Z,3.78
2022-08-22T21:07:42.180Z,3.85
2022-08-22T21:10:35.062Z,3.20
2022-08-22T21:13:06.275Z,3.10
2022-08-22T21:15:37.407Z,3.13
2022-08-22T21:18:04.380Z,3.20
2022-08-22T21:20:36.975Z,3.50
2022-08-22T21:23:15.296Z,3.00
2022-08-22T21:25:56.829Z,3.00
2022-08-22T21:28:33.752Z,3.30
2022-08-22T21:31:09.814Z,2.97
2022-08-22T21:33:41.343Z,3.50
2022-08-22T21:36:10.890Z,3.15
2022-08-22T21:38:38.305Z,3.10
2022-08-22T21:41:05.534Z,3.20
2022-08-22T21:43:38.025Z,3.40
2022-08-22T21:46:06.558Z,3.47
2022-08-22T21:48:59.464Z,3.65
2022-08-22T21:51:44.130Z,3.07
2022-08-22T21:54:30.307Z,3.25
2022-08-22T21:57:00.363Z,3.80
2022-08-22T21:59:52.131Z,3.30
2022-08-22T22:02:27.384Z,3.35
2022-08-22T22:04:54.412Z,4.03
2022-08-22T22:07:20.968Z,3.17
2022-08-22T22:09:54.518Z,3.30
2022-08-22T22:12:22.745Z,3.70
2022-08-22T22:14:50.073Z,3.53
2022-08-22T22:17:19.032Z,3.55
2022-08-22T22:19:46.273Z,3.75
2022-08-22T22:22:12.820Z,3.55
2022-08-22T22:24:39.560Z,3.97
2022-08-22T22:27:06.585Z,3.97
2022-08-22T22:29:33.716Z,4.53
2022-08-22T22:32:00.438Z,4.05
2022-08-22T22:34:27.138Z,3.40
2022-08-22T22:36:54.691Z,4.10
2022-08-22T22:39:21.291Z,3.60
2022-08-22T22:41:49.089Z,4.15
2022-08-22T22:44:15.734Z,3.33
2022-08-22T22:46:42.511Z,3.58
2022-08-22T22:49:09.066Z,4.20
2022-08-22T22:51:35.814Z,3.95
2022-08-22T22:54:02.359Z,3.83
2022-08-22T22:56:29.448Z,4.00
2022-08-22T22:59:00.789Z,4.00
2022-08-22T23:02:00.280Z,4.43
2022-08-22T23:04:26.888Z,3.78
2022-08-22T23:06:53.636Z,4.07
2022-08-22T23:09:20.184Z,3.90
2022-08-22T23:11:46.956Z,3.90
2022-08-22T23:14:13.876Z,3.65
2022-08-22T23:16:40.846Z,4.38
2022-08-22T23:19:12.459Z,4.40
2022-08-22T23:21:40.508Z,4.07
2022-08-22T23:24:07.516Z,3.83
2022-08-22T23:26:34.686Z,3.88
2022-08-22T23:29:04.366Z,3.83
2022-08-22T23:31:38.304Z,4.43
2022-08-22T23:34:08.599Z,4.75
2022-08-22T23:36:36.103Z,3.80
2022-08-22T23:39:05.451Z,3.88
2022-08-22T23:41:32.217Z,4.00
2022-08-22T23:43:58.968Z,3.75
2022-08-22T23:46:27.279Z,4.07
2022-08-22T23:48:54.383Z,4.30
2022-08-22T23:51:23.693Z,4.38
2022-08-22T23:53:51.733Z,4.03
2022-08-22T23:56:29.091Z,4.22
2022-08-22T23:58:55.851Z,4.10
